Time;durP1;ratioP1;P1;durP2;ratioP2;P2;SDS_P1;SDS_P2;PMS_P1;PMS_P2;Temp;Humidity;BMP_temperature;BMP_pressure;BME280_temperature;BME280_humidity;BME280_pressure;Samples;Min_cycle;Max_cycle;Signal;HPM_P1;HPM_P2
2022/09/14 00:00:28;;;;;;;0.40;0.40;;;;;;;15.00;59.93;99541.63;4948702;29;19922;-80
2022/09/14 00:02:54;;;;;;;;;;;;;;;15.37;59.21;99574.84;4949107;28;20048;-81
2022/09/14 00:05:19;;;;;;;0.80;0.80;;;;;;;14.69;60.28;99502.88;4949126;29;19977;-80
2022/09/14 00:07:45;;;;;;;0.20;0.20;;;;;;;14.76;60.73;99501.72;4949558;29;20030;-80
2022/09/14 00:10:10;;;;;;;0.40;0.40;;;;;;;15.03;59.71;99528.22;4949099;29;20046;-81
2022/09/14 00:12:37;;;;;;;0.32;0.32;;;;;;;14.77;60.64;99527.34;4948295;28;20043;-80
2022/09/14 00:15:06;;;;;;;0.60;0.47;;;;;;;14.84;60.65;99497.03;4948672;29;20434;-80
2022/09/14 00:17:32;;;;;;;0.30;0.30;;;;;;;15.31;60.92;99573.25;4944525;29;20457;-80
2022/09/14 00:19:57;;;;;;;0.75;0.75;;;;;;;15.13;59.39;99526.97;4933045;29;20042;-80
2022/09/14 00:22:23;;;;;;;0.80;0.80;;;;;;;14.73;60.09;99485.03;4949138;28;20042;-80
2022/09/14 00:24:49;;;;;;;0.95;0.95;;;;;;;14.74;60.60;99492.94;4955403;29;20046;-80
2022/09/14 00:27:15;;;;;;;0.57;0.57;;;;;;;14.84;60.90;99488.16;4955519;29;20030;-80
2022/09/14 00:29:40;;;;;;;4.30;2.40;;;;;;;14.88;60.46;99507.53;4955342;28;20425;-80
2022/09/14 00:32:06;;;;;;;1.30;1.20;;;;;;;15.20;60.54;99552.38;4955232;29;20601;-80
2022/09/14 00:34:33;;;;;;;;;;;;;;;15.41;60.96;99587.06;4955400;29;20027;-80
2022/09/14 00:36:59;;;;;;;0.30;0.30;;;;;;;14.96;60.41;99545.31;4954876;28;19919;-80
2022/09/14 00:39:24;;;;;;;0.30;0.30;;;;;;;14.99;60.59;99498.22;4954882;28;20094;-80
2022/09/14 00:41:51;;;;;;;0.45;0.45;;;;;;;15.05;60.40;99518.41;4954870;28;20078;-80
2022/09/14 00:44:16;;;;;;;0.20;0.20;;;;;;;15.51;60.46;99587.63;4955316;29;20027;-80
2022/09/14 00:46:45;;;;;;;2.65;1.77;;;;;;;15.16;59.87;99510.91;4955247;29;20031;-80
2022/09/14 00:49:18;;;;;;;8.07;3.22;;;;;;;14.99;60.56;99508.88;4955304;28;20046;-80
2022/09/14 00:51:50;;;;;;;0.77;0.77;;;;;;;15.30;60.56;99538.78;4954739;29;20154;-79
2022/09/14 00:54:16;;;;;;;1.17;1.08;;;;;;;15.43;60.04;99576.38;4955258;28;20035;-81
2022/09/14 00:56:41;;;;;;;0.55;0.55;;;;;;;15.15;60.58;99578.25;4955348;29;20030;-80
2022/09/14 00:59:18;;;;;;;1.17;1.17;;;;;;;14.94;60.26;99565.75;4954825;28;20061;-80
2022/09/14 01:01:44;;;;;;;0.20;0.20;;;;;;;14.69;61.41;99574.56;4954726;29;20042;-80
2022/09/14 01:04:10;;;;;;;1.48;1.38;;;;;;;14.82;61.97;99583.81;4955162;29;20051;-80
2022/09/14 01:06:40;;;;;;;;;;;;;;;14.91;62.17;99595.06;4955047;29;20094;-80
2022/09/14 01:09:24;;;;;;;1.42;1.33;;;;;;;14.94;61.87;99598.47;4954486;28;19922;-80
2022/09/14 01:11:55;;;;;;;1.00;1.00;;;;;;;15.12;61.37;99602.28;4955249;29;20081;-81
2022/09/14 01:14:36;;;;;;;0.90;0.90;;;;;;;15.19;61.48;99606.44;4953555;28;20054;-81
2022/09/14 01:17:12;;;;;;;0.32;0.32;;;;;;;14.97;62.30;99611.66;4955342;29;20121;-81
2022/09/14 01:20:04;;;;;;;0.80;0.80;;;;;;;14.99;62.45;99596.50;4954561;29;20039;-81
2022/09/14 01:22:47;;;;;;;1.02;0.98;;;;;;;14.83;62.19;99559.00;4953784;28;20394;-81
2022/09/14 01:25:32;;;;;;;0.38;0.38;;;;;;;15.06;62.45;99597.19;4953846;28;20027;-81
2022/09/14 01:28:02;;;;;;;1.60;0.95;;;;;;;14.58;62.52;99521.78;4953134;28;20118;-82
2022/09/14 01:30:30;;;;;;;0.85;0.85;;;;;;;14.81;62.85;99555.53;4935441;29;20395;-80
2022/09/14 01:33:16;;;;;;;0.20;0.20;;;;;;;15.01;62.86;99588.50;4948920;29;20126;-80
2022/09/14 01:35:54;;;;;;;1.00;0.98;;;;;;;14.85;63.28;99589.03;4951854;28;20030;-80
2022/09/14 01:38:30;;;;;;;0.32;0.32;;;;;;;14.73;63.85;99552.25;4950015;29;20042;-80
2022/09/14 01:40:59;;;;;;;0.90;0.90;;;;;;;14.93;63.09;99586.09;4951717;29;20031;-80
2022/09/14 01:43:39;;;;;;;0.45;0.45;;;;;;;14.83;63.70;99593.53;4933659;29;20486;-79
2022/09/14 01:46:19;;;;;;;0.95;0.70;;;;;;;14.53;64.17;99587.41;4932692;29;20134;-80
2022/09/14 01:48:45;;;;;;;1.20;1.13;;;;;;;14.45;64.60;99597.44;4939126;29;20043;-80
2022/09/14 01:51:18;;;;;;;0.70;0.70;;;;;;;14.04;65.73;99578.38;4951179;29;20507;-79
2022/09/14 01:53:52;;;;;;;0.43;0.43;;;;;;;14.31;64.59;99552.75;4946641;29;20544;-80
2022/09/14 01:56:30;;;;;;;1.13;1.13;;;;;;;14.20;65.02;99553.09;4931252;29;20036;-80
2022/09/14 01:59:06;;;;;;;0.88;0.88;;;;;;;14.36;64.90;99565.88;4940349;29;20429;-80
2022/09/14 02:01:45;;;;;;;0.65;0.65;;;;;;;14.61;65.00;99600.47;4951050;29;20039;-80
2022/09/14 02:04:16;;;;;;;1.48;1.33;;;;;;;14.45;64.29;99561.13;4946073;28;20055;-80
2022/09/14 02:06:44;;;;;;;0.25;0.25;;;;;;;14.44;64.98;99567.38;4930513;29;20482;-79
2022/09/14 02:09:12;;;;;;;1.25;1.17;;;;;;;14.59;64.39;99587.22;4939957;29;20143;-79
2022/09/14 02:11:38;;;;;;;0.40;0.40;;;;;;;14.70;64.29;99578.91;4950982;29;20035;-79
2022/09/14 02:14:05;;;;;;;0.45;0.45;;;;;;;14.53;63.64;99552.06;4946069;29;20545;-80
2022/09/14 02:16:31;;;;;;;0.50;0.50;;;;;;;14.67;63.67;99569.28;4931991;29;20031;-80
2022/09/14 02:18:58;;;;;;;1.27;1.27;;;;;;;14.75;63.22;99592.94;4940223;29;20395;-80
2022/09/14 02:21:29;;;;;;;0.40;0.40;;;;;;;14.54;63.30;99553.78;4950869;29;20086;-79
2022/09/14 02:23:57;;;;;;;0.20;0.20;;;;;;;14.62;63.20;99576.53;4950901;29;20035;-80
2022/09/14 02:26:23;;;;;;;0.85;0.85;;;;;;;14.50;63.30;99556.56;4950945;29;20059;-80
2022/09/14 02:28:54;;;;;;;0.38;0.38;;;;;;;14.55;62.83;99572.31;4949072;29;20430;-80
2022/09/14 02:31:41;;;;;;;0.50;0.50;;;;;;;14.83;63.17;99608.59;4950558;29;20031;-79
2022/09/14 02:34:35;;;;;;;0.22;0.22;;;;;;;14.38;63.06;99554.31;4950458;29;20039;-79
2022/09/14 02:37:06;;;;;;;1.17;1.15;;;;;;;14.67;63.05;99603.81;4950785;29;20062;-80
2022/09/14 02:39:42;;;;;;;0.28;0.28;;;;;;;14.30;63.68;99604.09;4950265;29;20140;-80
2022/09/14 02:42:18;;;;;;;0.77;0.77;;;;;;;14.12;64.59;99598.44;4950697;29;20043;-80
2022/09/14 02:44:49;;;;;;;0.85;0.85;;;;;;;14.35;65.01;99617.19;4950726;29;20098;-80
2022/09/14 02:47:24;;;;;;;1.10;1.05;;;;;;;14.26;64.71;99597.16;4949593;28;20035;-80
2022/09/14 02:50:09;;;;;;;0.68;0.52;;;;;;;14.39;64.26;99608.25;4950372;29;20757;-80
2022/09/14 02:53:06;;;;;;;6.88;2.17;;;;;;;14.41;63.77;99606.38;4968176;28;20097;-80
2022/09/14 02:55:39;;;;;;;2.13;1.65;;;;;;;14.63;63.64;99628.72;4950089;28;20043;-81
2022/09/14 02:58:13;;;;;;;0.55;0.55;;;;;;;14.35;63.27;99580.94;4964918;28;20093;-81
2022/09/14 03:00:44;;;;;;;0.45;0.45;;;;;;;14.41;63.65;99620.56;4945261;28;20612;-81
2022/09/14 03:03:13;;;;;;;0.95;0.95;;;;;;;13.90;63.93;99542.56;4936410;29;20158;-81
2022/09/14 03:05:39;;;;;;;1.23;1.20;;;;;;;14.31;64.37;99621.75;4944860;29;20031;-82
2022/09/14 03:08:05;;;;;;;0.82;0.82;;;;;;;14.36;63.92;99613.63;4960295;28;20073;-81
2022/09/14 03:10:32;;;;;;;0.85;0.82;;;;;;;14.27;64.10;99597.09;4949726;29;20147;-81
2022/09/14 03:12:59;;;;;;;0.30;0.30;;;;;;;14.49;63.54;99605.25;4948345;29;20502;-82
2022/09/14 03:15:26;;;;;;;0.43;0.43;;;;;;;14.55;63.39;99609.50;4945202;29;20050;-83
2022/09/14 03:17:52;;;;;;;1.67;1.55;;;;;;;14.38;63.44;99591.47;4946782;29;20099;-83
2022/09/14 03:20:20;;;;;;;1.45;1.40;;;;;;;14.15;63.37;99582.44;4948460;29;20039;-81
2022/09/14 03:22:47;;;;;;;0.88;0.73;;;;;;;13.86;64.39;99553.31;4949463;28;20035;-82
2022/09/14 03:25:13;;;;;;;1.10;0.93;;;;;;;13.89;63.05;99537.31;4952402;28;20039;-80
2022/09/14 03:27:39;;;;;;;1.25;1.23;;;;;;;14.09;63.13;99600.34;4963347;28;20086;-80
2022/09/14 03:30:05;;;;;;;0.95;0.95;;;;;;;13.73;64.46;99617.31;4948447;28;20038;-80
2022/09/14 03:32:31;;;;;;;0.30;0.30;;;;;;;13.59;64.84;99611.50;4948732;28;20073;-81
2022/09/14 03:34:56;;;;;;;0.80;0.80;;;;;;;13.77;64.42;99634.84;4945413;28;20118;-81
2022/09/14 03:37:23;;;;;;;0.60;0.60;;;;;;;13.49;64.78;99610.06;4956377;28;20126;-78
2022/09/14 03:39:49;;;;;;;0.80;0.75;;;;;;;13.46;64.59;99596.91;4965290;28;20509;-80
2022/09/14 03:42:15;;;;;;;;;;;;;;;13.67;65.16;99619.25;4952859;28;20042;-82
2022/09/14 03:44:41;;;;;;;0.95;0.93;;;;;;;13.73;65.05;99617.31;4964337;28;19922;-78
2022/09/14 03:47:07;;;;;;;;;;;;;;;13.72;65.91;99630.59;4949575;28;20074;-81
2022/09/14 03:49:33;;;;;;;12.48;1.75;;;;;;;13.60;65.51;99602.66;4948488;29;20407;-80
2022/09/14 03:51:58;;;;;;;1.55;1.45;;;;;;;13.58;65.62;99615.09;4945544;28;20040;-82
2022/09/14 03:54:23;;;;;;;;;;;;;;;13.69;65.76;99623.59;4958939;28;20047;-81
2022/09/14 03:56:50;;;;;;;;;;;;;;;13.69;65.30;99617.44;4948963;29;19922;-82
2022/09/14 03:59:16;;;;;;;1.58;1.52;;;;;;;13.64;65.88;99585.75;4947048;28;19929;-81
2022/09/14 04:01:41;;;;;;;0.50;0.50;;;;;;;13.87;65.65;99626.63;4949069;29;20036;-81
2022/09/14 04:04:07;;;;;;;2.53;2.33;;;;;;;13.66;66.29;99606.91;4948394;29;20055;-81
2022/09/14 04:06:32;;;;;;;;;;;;;;;13.74;66.05;99632.28;4949141;29;20039;-80
2022/09/14 04:08:58;;;;;;;2.53;1.73;;;;;;;13.35;66.28;99587.47;4947861;28;19925;-80
2022/09/14 04:11:24;;;;;;;0.60;0.60;;;;;;;13.61;66.65;99618.50;4948344;29;20031;-80
2022/09/14 04:13:51;;;;;;;1.52;1.42;;;;;;;13.79;65.57;99605.63;4964788;28;20511;-79
2022/09/14 04:16:21;;;;;;;1.17;0.90;;;;;;;13.60;66.18;99614.13;4956033;28;20039;-79
2022/09/14 04:18:47;;;;;;;1.30;1.20;;;;;;;13.42;66.44;99607.56;4939589;29;20038;-81
2022/09/14 04:21:15;;;;;;;0.63;0.63;;;;;;;13.62;66.91;99643.22;4948587;29;20413;-81
2022/09/14 04:23:41;;;;;;;0.45;0.45;;;;;;;13.71;67.15;99632.38;4963806;28;20035;-80
2022/09/14 04:26:11;;;;;;;1.17;1.13;;;;;;;13.80;66.63;99623.28;4949242;28;20041;-81
2022/09/14 04:28:37;;;;;;;0.50;0.50;;;;;;;13.79;66.15;99621.53;4949224;29;20035;-83
2022/09/14 04:31:02;;;;;;;;;;;;;;;13.77;65.98;99640.13;4949841;29;20042;-83
2022/09/14 04:33:34;;;;;;;1.52;1.42;;;;;;;13.75;64.46;99602.22;4949407;28;20735;-82
2022/09/14 04:36:02;;;;;;;0.65;0.65;;;;;;;13.61;65.24;99631.78;4947210;29;20043;-83
2022/09/14 04:38:29;;;;;;;3.63;2.75;;;;;;;13.32;65.38;99594.59;4947179;28;20150;-83
2022/09/14 04:40:55;;;;;;;1.85;1.50;;;;;;;13.36;65.96;99599.81;4949013;29;20533;-83
2022/09/14 04:43:21;;;;;;;2.45;1.73;;;;;;;13.60;66.54;99645.91;4948733;29;20098;-82
2022/09/14 04:45:47;;;;;;;1.08;1.08;;;;;;;13.70;66.79;99638.59;4947626;29;20038;-84
2022/09/14 04:48:13;;;;;;;1.52;1.45;;;;;;;13.68;66.10;99616.53;4948935;29;20039;-83
2022/09/14 04:50:38;;;;;;;0.63;0.63;;;;;;;13.74;65.77;99603.13;4962758;28;20035;-82
2022/09/14 04:53:04;;;;;;;;;;;;;;;14.17;66.38;99639.88;4949302;29;20486;-82
2022/09/14 04:55:29;;;;;;;2.08;1.67;;;;;;;13.99;66.63;99610.34;4948491;29;19919;-82
2022/09/14 04:57:54;;;;;;;1.80;1.70;;;;;;;14.25;65.42;99603.38;4946872;29;20039;-82
2022/09/14 05:00:20;;;;;;;4.55;4.22;;;;;;;14.28;64.18;99593.50;4948464;29;20046;-84
2022/09/14 05:02:45;;;;;;;1.33;1.20;;;;;;;14.32;63.62;99600.47;4948833;28;20126;-82
2022/09/14 05:05:11;;;;;;;3.08;0.90;;;;;;;14.17;63.34;99587.69;4949100;29;20139;-85
2022/09/14 05:07:37;;;;;;;;;;;;;;;14.35;63.77;99634.00;4948741;28;20031;-83
2022/09/14 05:10:03;;;;;;;0.55;0.55;;;;;;;14.34;62.49;99568.59;4949718;28;19918;-85
2022/09/14 05:12:29;;;;;;;1.30;1.20;;;;;;;14.58;62.30;99616.47;4952261;28;20034;-85
2022/09/14 05:14:54;;;;;;;2.47;1.30;;;;;;;14.85;62.11;99612.91;4964696;28;20038;-87
2022/09/14 05:17:20;;;;;;;0.63;0.63;;;;;;;15.19;61.98;99611.75;4971756;28;20050;-85
2022/09/14 05:19:45;;;;;;;1.40;1.30;;;;;;;15.24;61.96;99619.56;4954016;28;20042;-86
2022/09/14 05:22:11;;;;;;;2.35;2.15;;;;;;;15.00;61.17;99562.88;4951816;29;20118;-88
2022/09/14 05:24:36;;;;;;;;;;;;;;;15.48;60.52;99638.22;4952704;29;20031;-86
2022/09/14 05:27:02;;;;;;;1.05;1.05;;;;;;;15.31;59.78;99593.66;4952035;29;19915;-84
2022/09/14 05:29:28;;;;;;;2.95;1.75;;;;;;;15.55;60.53;99554.66;4952031;28;20023;-84
2022/09/14 05:31:54;;;;;;;1.10;0.90;;;;;;;15.95;59.34;99544.31;4951645;28;20503;-85
2022/09/14 05:34:19;;;;;;;25.55;1.55;;;;;;;16.63;58.66;99591.19;4952791;29;20028;-87
2022/09/14 05:36:45;;;;;;;;;;;;;;;17.18;57.07;99633.34;4947330;29;20442;-86
2022/09/14 05:39:10;;;;;;;1.00;0.98;;;;;;;17.05;56.48;99573.50;4948508;29;19925;-86
2022/09/14 05:41:36;;;;;;;1.50;1.42;;;;;;;17.16;55.83;99557.03;4952143;29;20087;-87
2022/09/14 05:44:02;;;;;;;;;;;;;;;17.83;56.02;99653.63;4953345;29;20039;-86
2022/09/14 05:46:27;;;;;;;4.50;1.17;;;;;;;17.36;55.96;99586.34;4951079;29;19921;-87
2022/09/14 05:48:53;;;;;;;0.55;0.55;;;;;;;17.70;55.97;99579.47;4951482;29;20035;-86
2022/09/14 05:51:21;;;;;;;0.43;0.43;;;;;;;18.25;54.88;99615.22;4951360;29;20031;-85
2022/09/14 05:53:50;;;;;;;1.08;1.05;;;;;;;18.29;51.92;99579.41;4950856;29;20039;-85
2022/09/14 05:56:17;;;;;;;0.75;0.75;;;;;;;18.23;51.13;99580.56;4951202;29;20027;-85
2022/09/14 05:58:43;;;;;;;0.50;0.50;;;;;;;18.04;52.11;99588.59;4951556;29;20502;-85
2022/09/14 06:01:11;;;;;;;1.08;0.85;;;;;;;18.64;51.17;99608.84;4950517;29;20035;-84
2022/09/14 06:03:37;;;;;;;1.05;1.05;;;;;;;19.25;49.77;99637.00;4950747;28;20059;-86
2022/09/14 06:06:04;;;;;;;0.85;0.85;;;;;;;18.96;48.97;99609.06;4950997;29;20038;-86
2022/09/14 06:08:30;;;;;;;5.20;1.38;;;;;;;18.92;49.65;99612.84;4950815;29;20031;-87
2022/09/14 06:10:55;;;;;;;3.05;0.85;;;;;;;19.45;48.34;99592.28;4950655;29;20031;-84
2022/09/14 06:13:22;;;;;;;1.17;1.08;;;;;;;20.15;48.04;99635.78;4950692;29;20591;-92
2022/09/14 06:15:48;;;;;;;0.85;0.75;;;;;;;20.03;47.46;99609.69;4949430;29;20043;-85
2022/09/14 06:18:13;;;;;;;0.70;0.47;;;;;;;20.17;46.95;99600.88;4950145;29;20526;-85
2022/09/14 06:20:39;;;;;;;0.75;0.70;;;;;;;20.41;46.63;99595.97;4950472;28;20085;-87
2022/09/14 06:23:04;;;;;;;1.50;1.40;;;;;;;20.58;45.37;99611.91;4950791;29;20039;-85
2022/09/14 06:25:30;;;;;;;0.68;0.68;;;;;;;20.77;43.68;99610.03;4950862;29;20166;-86
2022/09/14 06:27:55;;;;;;;21.27;1.02;;;;;;;20.78;44.63;99633.19;4949009;29;20038;-85
2022/09/14 06:30:21;;;;;;;0.60;0.60;;;;;;;20.72;43.68;99640.63;4951417;29;20517;-85
2022/09/14 06:32:47;;;;;;;1.45;1.35;;;;;;;20.43;43.41;99602.06;4950515;29;20039;-85
2022/09/14 06:35:12;;;;;;;0.40;0.40;;;;;;;20.38;43.10;99588.09;4950380;29;20028;-85
2022/09/14 06:37:38;;;;;;;0.80;0.75;;;;;;;20.95;43.01;99629.53;4950771;29;20027;-85
2022/09/14 06:40:04;;;;;;;2.25;1.05;;;;;;;21.23;43.38;99634.97;4950950;29;20036;-85
2022/09/14 06:42:30;;;;;;;5.25;1.77;;;;;;;21.82;42.59;99615.31;4950407;29;20486;-86
2022/09/14 06:44:55;;;;;;;6.70;2.55;;;;;;;21.82;41.39;99599.19;4950880;29;20035;-85
2022/09/14 06:47:22;;;;;;;1.23;1.13;;;;;;;21.40;43.05;99612.47;4950951;29;20494;-86
2022/09/14 06:49:49;;;;;;;8.02;2.53;;;;;;;21.49;41.55;99627.19;4950012;29;20505;-85
2022/09/14 06:52:14;;;;;;;1.00;1.00;;;;;;;22.28;42.16;99702.84;4950643;29;20043;-86
2022/09/14 06:54:40;;;;;;;1.33;0.98;;;;;;;22.37;39.99;99653.94;4950335;29;20040;-87
2022/09/14 06:57:05;;;;;;;1.10;0.95;;;;;;;22.75;41.17;99636.25;4950295;29;20131;-85
2022/09/14 06:59:31;;;;;;;2.30;1.35;;;;;;;23.09;38.95;99628.63;4950288;29;20126;-84
2022/09/14 07:01:56;;;;;;;0.68;0.68;;;;;;;22.70;38.79;99623.09;4964665;28;20222;-87
2022/09/14 07:04:23;;;;;;;3.40;1.88;;;;;;;22.55;39.67;99624.13;4949979;28;20089;-87
2022/09/14 07:06:49;;;;;;;0.70;0.63;;;;;;;22.92;39.77;99621.66;4950339;29;20042;-85
2022/09/14 07:09:16;;;;;;;0.50;0.50;;;;;;;23.50;37.60;99633.84;4949835;29;20046;-86
2022/09/14 07:11:42;;;;;;;0.82;0.35;;;;;;;23.15;39.32;99629.06;4950189;29;20038;-87
2022/09/14 07:14:09;;;;;;;0.77;0.77;;;;;;;23.68;40.21;99617.34;4950110;29;20035;-85
2022/09/14 07:16:36;;;;;;;0.35;0.35;;;;;;;23.77;37.63;99614.00;4950135;29;20663;-85
2022/09/14 07:19:04;;;;;;;1.30;1.08;;;;;;;23.14;38.14;99600.47;4964647;28;20102;-85
2022/09/14 07:21:31;;;;;;;0.65;0.65;;;;;;;23.69;38.54;99629.88;4949768;29;20031;-85
2022/09/14 07:23:57;;;;;;;0.60;0.50;;;;;;;23.46;38.77;99623.41;4949780;29;20035;-86
2022/09/14 07:26:25;;;;;;;1.75;1.23;;;;;;;23.39;37.27;99582.59;4949706;29;20038;-86
2022/09/14 07:29:02;;;;;;;6.50;2.90;;;;;;;23.10;37.01;99624.97;4949659;29;20506;-86
2022/09/14 07:31:34;;;;;;;0.28;0.28;;;;;;;23.66;37.88;99587.84;4949198;29;20085;-88
2022/09/14 07:34:02;;;;;;;1.67;1.08;;;;;;;24.51;35.64;99637.50;4949020;28;20394;-88
2022/09/14 07:36:29;;;;;;;1.45;1.15;;;;;;;24.98;35.38;99612.38;4949865;29;20038;-86
2022/09/14 07:38:55;;;;;;;1.75;1.48;;;;;;;25.11;36.48;99666.25;4948370;29;20811;-86
2022/09/14 07:41:23;;;;;;;1.63;1.52;;;;;;;24.80;36.30;99594.88;4949258;29;20035;-87
2022/09/14 07:43:58;;;;;;;0.95;0.93;;;;;;;25.23;35.60;99601.53;4964493;28;20701;-88
2022/09/14 07:46:26;;;;;;;1.45;1.35;;;;;;;24.60;36.33;99575.69;4949705;29;20031;-86
2022/09/14 07:49:01;;;;;;;1.20;0.90;;;;;;;25.68;36.25;99663.75;4949831;29;20070;-85
2022/09/14 09:47:27;;;;;;;0.45;0.45;;;;;;;27.45;29.35;99538.25;4824495;22;12410776;-86
2022/09/14 09:49:58;;;;;;;1.17;0.65;;;;;;;27.59;29.74;99531.63;5049294;28;20049;-86
2022/09/14 09:52:24;;;;;;;0.75;0.75;;;;;;;27.14;29.49;99512.97;5030946;28;20421;-85
2022/09/14 09:54:52;;;;;;;2.63;1.15;;;;;;;26.74;30.50;99500.16;5048881;28;20104;-85
2022/09/14 09:57:35;;;;;;;7.10;0.73;;;;;;;27.05;30.71;99538.13;5049233;28;20124;-84
2022/09/14 10:00:17;;;;;;;0.65;0.52;;;;;;;27.50;29.36;99540.56;5048972;28;20529;-84
2022/09/14 10:02:43;;;;;;;3.88;1.20;;;;;;;27.46;29.65;99507.44;5030698;28;20032;-84
2022/09/14 10:05:09;;;;;;;0.70;0.68;;;;;;;27.09;29.20;99536.88;5048634;28;20025;-84
2022/09/14 10:07:56;;;;;;;0.75;0.43;;;;;;;27.23;30.21;99525.69;5048764;28;20029;-84
2022/09/14 10:10:34;;;;;;;0.10;0.10;;;;;;;27.25;31.64;99534.56;5048351;28;20029;-84
2022/09/14 10:13:02;;;;;;;16.27;1.75;;;;;;;27.28;32.50;99503.63;5048264;28;20032;-84
2022/09/14 10:15:35;;;;;;;0.50;0.47;;;;;;;27.51;28.39;99488.09;5029327;28;20048;-87
2022/09/14 10:18:13;;;;;;;1.17;0.82;;;;;;;27.79;28.46;99519.00;5048574;28;20029;-84
2022/09/14 10:20:42;;;;;;;1.33;0.82;;;;;;;27.43;29.66;99501.47;5048685;28;20765;-84
2022/09/14 10:23:17;;;;;;;2.95;0.65;;;;;;;27.67;29.10;99501.97;5048606;28;20045;-87
2022/09/14 10:25:43;;;;;;;;;;;;;;;27.94;29.87;99510.47;5049046;28;20029;-85
2022/09/14 10:28:30;;;;;;;0.45;0.45;;;;;;;27.82;28.59;99490.75;5048261;28;19916;-85
2022/09/14 10:31:14;;;;;;;0.30;0.30;;;;;;;27.96;29.92;99519.34;5048238;28;20052;-86
2022/09/14 10:33:41;;;;;;;0.00;0.00;;;;;;;27.89;29.24;99504.63;5030090;28;20028;-87
2022/09/14 10:36:12;;;;;;;0.60;0.45;;;;;;;27.76;29.41;99443.41;5047919;28;20279;-89
2022/09/14 10:38:52;;;;;;;0.10;0.10;;;;;;;27.88;30.76;99468.50;5030037;28;20035;-86
2022/09/14 10:41:25;;;;;;;1.88;0.55;;;;;;;28.14;27.83;99505.97;5048309;28;20413;-86
2022/09/14 10:43:53;;;;;;;0.20;0.20;;;;;;;27.81;29.13;99480.94;5047949;28;20037;-83
2022/09/14 10:46:29;;;;;;;0.43;0.05;;;;;;;27.89;29.54;99493.78;5047769;28;20079;-85
2022/09/14 10:49:32;;;;;;;0.32;0.30;;;;;;;28.31;27.71;99499.84;5047888;28;20060;-84
2022/09/14 10:52:23;;;;;;;1.75;1.35;;;;;;;28.26;29.53;99499.44;5017518;28;20041;-87
2022/09/14 10:55:04;;;;;;;0.82;0.80;;;;;;;28.31;27.74;99482.72;5047131;28;20063;-87
2022/09/14 10:57:51;;;;;;;0.22;0.22;;;;;;;28.11;26.93;99462.88;5047200;28;20036;-86
2022/09/14 11:00:20;;;;;;;0.63;0.25;;;;;;;28.18;26.90;99464.88;5044951;28;20025;-85
2022/09/14 11:03:07;;;;;;;0.85;0.45;;;;;;;28.27;27.75;99484.00;5047021;28;20090;-84
2022/09/14 11:05:51;;;;;;;0.22;0.22;;;;;;;27.99;28.19;99440.47;5047974;28;20043;-87
2022/09/14 11:08:35;;;;;;;0.32;0.30;;;;;;;27.88;26.88;99427.84;5047157;28;21031;-85
2022/09/14 11:11:22;;;;;;;0.47;0.45;;;;;;;28.72;28.13;99461.75;5047410;28;20029;-87
2022/09/14 11:14:26;;;;;;;0.28;0.28;;;;;;;28.37;25.50;99460.47;5029544;28;20047;-85
2022/09/14 11:17:12;;;;;;;0.20;0.15;;;;;;;28.23;27.10;99472.59;5047162;28;20128;-85
2022/09/14 11:19:40;;;;;;;0.20;0.20;;;;;;;28.34;27.35;99477.88;5047130;28;20029;-86
2022/09/14 11:22:27;;;;;;;0.88;0.70;;;;;;;28.64;26.76;99465.19;5047541;28;20032;-85
2022/09/14 11:24:55;;;;;;;1.17;0.63;;;;;;;28.66;26.81;99427.06;5047134;28;20028;-86
2022/09/14 11:27:35;;;;;;;1.45;0.68;;;;;;;28.80;26.04;99451.03;5047270;28;20104;-87
2022/09/14 11:30:17;;;;;;;0.43;0.20;;;;;;;28.94;26.36;99458.69;5029087;28;20041;-86
2022/09/14 11:32:54;;;;;;;0.98;0.80;;;;;;;28.93;26.80;99427.13;5047362;28;20108;-89
2022/09/14 11:35:43;;;;;;;0.65;0.45;;;;;;;28.55;27.74;99398.22;5029282;28;20479;-87
2022/09/14 11:38:29;;;;;;;0.57;0.55;;;;;;;29.10;26.10;99440.91;5028749;28;20086;-86
2022/09/14 11:41:08;;;;;;;0.30;0.30;;;;;;;28.80;26.92;99410.31;5046961;28;20036;-86
2022/09/14 11:43:48;;;;;;;0.30;0.30;;;;;;;28.77;27.34;99415.19;5029072;28;20454;-84
2022/09/14 11:46:23;;;;;;;0.35;0.35;;;;;;;29.16;26.34;99415.03;5029230;28;20033;-86
2022/09/14 11:48:53;;;;;;;;;;;;;;;29.14;25.51;99419.78;5028659;28;20056;-86
2022/09/14 11:51:38;;;;;;;0.47;0.45;;;;;;;28.89;25.40;99400.44;5046918;28;19942;-86
2022/09/14 11:54:19;;;;;;;3.33;2.13;;;;;;;28.85;25.10;99394.44;5029380;28;20159;-86
2022/09/14 11:56:54;;;;;;;1.13;0.88;;;;;;;29.05;25.94;99397.09;5029243;28;20482;-87
2022/09/14 11:59:38;;;;;;;2.40;1.35;;;;;;;29.17;25.35;99414.06;5046894;28;20060;-87
2022/09/14 12:02:21;;;;;;;0.30;0.30;;;;;;;29.15;25.91;99411.47;5046847;28;20029;-86
2022/09/14 12:05:05;;;;;;;0.30;0.20;;;;;;;29.36;26.46;99413.13;5047003;28;20075;-87
2022/09/14 12:07:46;;;;;;;0.40;0.27;;;;;;;28.98;24.68;99375.13;5046423;28;20806;-88
2022/09/14 12:10:14;;;;;;;1.75;0.85;;;;;;;29.19;24.97;99418.31;5046485;28;20036;-88
2022/09/14 12:12:47;;;;;;;0.80;0.80;;;;;;;29.33;25.04;99397.13;5046504;28;20517;-87
2022/09/14 12:15:21;;;;;;;0.60;0.52;;;;;;;29.40;24.89;99352.91;5028785;28;20124;-89
2022/09/14 12:17:49;;;;;;;0.20;0.17;;;;;;;29.38;25.41;99340.47;5046424;28;20036;-88
2022/09/14 12:20:28;;;;;;;0.40;0.40;;;;;;;29.53;26.21;99387.00;5028390;28;20578;-88
2022/09/14 12:23:31;;;;;;;0.00;0.00;;;;;;;29.26;25.41;99353.44;5046656;28;20115;-87
2022/09/14 12:26:03;;;;;;;6.25;1.10;;;;;;;29.15;26.65;99315.56;5031714;28;20073;-88
2022/09/14 12:28:37;;;;;;;0.82;0.82;;;;;;;29.57;24.63;99369.41;5028563;28;20040;-88
2022/09/14 12:31:03;;;;;;;0.20;0.13;;;;;;;29.57;24.03;99359.38;5046249;28;20025;-86
2022/09/14 12:33:31;;;;;;;0.82;0.50;;;;;;;29.58;26.22;99354.78;5046175;28;20071;-87
2022/09/14 12:36:10;;;;;;;0.40;0.40;;;;;;;29.48;24.30;99354.88;5046719;28;20061;-85
2022/09/14 12:39:01;;;;;;;0.10;0.10;;;;;;;29.49;24.92;99340.28;5048740;28;20075;-86
2022/09/14 12:41:46;;;;;;;2.20;1.85;;;;;;;29.57;24.74;99359.38;5049899;28;20045;-87
2022/09/14 12:44:47;;;;;;;0.98;0.65;;;;;;;29.73;25.40;99353.25;5050145;28;20064;-87
2022/09/14 12:47:24;;;;;;;0.65;0.52;;;;;;;30.07;24.30;99358.00;4969172;28;20042;-86
2022/09/14 12:49:53;;;;;;;6.28;1.52;;;;;;;29.78;24.09;99333.75;5039155;28;20139;-88
2022/09/14 12:52:41;;;;;;;0.10;0.10;;;;;;;29.88;25.20;99361.75;5050127;28;20033;-86
2022/09/14 12:55:37;;;;;;;0.65;0.65;;;;;;;29.89;23.72;99339.00;5049930;28;20040;-85
2022/09/14 12:58:05;;;;;;;2.05;1.23;;;;;;;30.07;23.86;99374.31;5032822;28;20060;-85
2022/09/14 13:00:46;;;;;;;8.32;0.90;;;;;;;29.84;25.59;99354.06;5036108;28;20039;-85
2022/09/14 13:03:43;;;;;;;0.20;0.20;;;;;;;29.84;23.22;99364.94;5053668;28;20025;-85
2022/09/14 13:06:12;;;;;;;4.13;0.43;;;;;;;29.67;24.02;99356.59;5053626;28;20552;-86
2022/09/14 13:08:44;;;;;;;0.55;0.40;;;;;;;29.49;23.69;99347.56;5053311;28;20099;-84
2022/09/14 13:11:19;;;;;;;0.20;0.20;;;;;;;29.51;24.15;99357.28;5035870;28;20426;-84
2022/09/14 13:13:47;;;;;;;0.43;0.43;;;;;;;29.93;23.40;99364.00;5053830;28;20036;-84
2022/09/14 13:16:21;;;;;;;0.45;0.45;;;;;;;30.03;23.34;99364.78;5053455;28;20033;-85
2022/09/14 13:18:47;;;;;;;3.00;1.17;;;;;;;30.11;23.42;99366.72;5053412;28;20025;-84
2022/09/14 13:21:23;;;;;;;0.25;0.22;;;;;;;29.82;23.57;99352.34;5053531;28;20120;-87
2022/09/14 13:23:49;;;;;;;0.20;0.20;;;;;;;30.05;23.24;99357.31;5035192;28;20041;-86
2022/09/14 13:26:30;;;;;;;0.73;0.63;;;;;;;30.15;23.06;99341.78;5053664;28;20029;-86
2022/09/14 13:28:59;;;;;;;0.52;0.47;;;;;;;30.24;24.46;99355.44;5035090;28;20025;-85
2022/09/14 13:31:30;;;;;;;0.28;0.28;;;;;;;30.33;23.59;99359.94;5053524;28;20060;-84
2022/09/14 13:33:57;;;;;;;0.25;0.25;;;;;;;30.25;23.83;99346.28;5053335;28;20033;-84
2022/09/14 13:36:27;;;;;;;1.05;0.77;;;;;;;30.23;22.97;99359.16;5053198;28;20037;-85
2022/09/14 13:38:55;;;;;;;0.32;0.32;;;;;;;30.25;23.18;99360.72;5053133;28;20029;-84
2022/09/14 13:41:22;;;;;;;0.25;0.20;;;;;;;30.38;25.56;99371.19;5052715;28;20486;-85
2022/09/14 13:43:51;;;;;;;0.25;0.20;;;;;;;30.42;22.94;99355.44;5052984;28;20025;-86
2022/09/14 13:46:17;;;;;;;0.93;0.90;;;;;;;30.62;22.78;99358.81;5053053;28;20413;-84
2022/09/14 13:48:43;;;;;;;0.30;0.25;;;;;;;30.26;23.32;99320.75;5051899;28;20048;-85
2022/09/14 13:51:11;;;;;;;2.95;2.05;;;;;;;30.20;23.58;99318.69;5052722;28;20409;-89